createdAt,value
2018-06-04T00:00:53.713Z,20.92
2018-06-04T00:03:24.480Z,21.28
2018-06-04T00:05:54.980Z,21.37
2018-06-04T00:08:26.562Z,21.36
2018-06-04T00:10:57.219Z,21.30
2018-06-04T00:13:28.780Z,21.08
2018-06-04T00:15:59.269Z,20.82
2018-06-04T00:18:30.078Z,20.58
2018-06-04T00:21:00.554Z,20.38
2018-06-04T00:23:32.027Z,20.27
2018-06-04T00:26:02.483Z,20.22
2018-06-04T00:28:33.005Z,20.25
2018-06-04T00:31:03.458Z,20.22
2018-06-04T00:33:35.802Z,20.18
2018-06-04T00:36:07.007Z,20.17
2018-06-04T00:38:37.127Z,19.93
2018-06-04T00:41:07.641Z,19.71
2018-06-04T00:43:39.191Z,19.76
2018-06-04T00:46:09.809Z,19.89
2018-06-04T00:48:41.332Z,19.86
2018-06-04T00:51:11.981Z,19.79
2018-06-04T00:53:42.677Z,19.80
2018-06-04T00:56:21.001Z,19.87
2018-06-04T00:58:51.443Z,19.82
2018-06-04T01:01:21.940Z,19.78
2018-06-04T01:03:52.949Z,19.59
2018-06-04T01:06:24.269Z,19.49
2018-06-04T01:08:54.772Z,19.42
2018-06-04T01:11:25.379Z,19.44
2018-06-04T01:13:55.812Z,19.52
2018-06-04T01:16:27.405Z,19.53
2018-06-04T01:18:57.857Z,19.54
2018-06-04T01:21:28.696Z,19.71
2018-06-04T01:23:59.168Z,19.80
2018-06-04T01:26:29.798Z,19.88
2018-06-04T01:29:00.435Z,19.87
2018-06-04T01:31:30.989Z,19.91
2018-06-04T01:34:01.765Z,19.92
2018-06-04T01:36:32.637Z,19.75
2018-06-04T01:39:02.992Z,19.58
2018-06-04T01:41:33.550Z,19.42
2018-06-04T01:44:05.236Z,19.32
2018-06-04T01:46:35.829Z,19.23
2018-06-04T01:49:06.764Z,19.17
2018-06-04T01:51:37.353Z,19.14
2018-06-04T01:54:07.858Z,19.10
2018-06-04T01:56:38.831Z,19.13
2018-06-04T01:59:09.312Z,19.16
2018-06-04T02:01:39.874Z,19.18
2018-06-04T02:04:10.627Z,19.29
2018-06-04T02:06:41.714Z,19.35
2018-06-04T02:09:12.314Z,19.43
2018-06-04T02:11:43.097Z,19.59
2018-06-04T02:14:13.734Z,19.61
2018-06-04T02:16:44.287Z,19.62
2018-06-04T02:19:14.904Z,19.50
2018-06-04T02:21:45.459Z,19.56
2018-06-04T02:24:16.097Z,19.50
2018-06-04T02:26:46.747Z,19.46
2018-06-04T02:29:17.329Z,19.35
2018-06-04T02:31:48.004Z,19.31
2018-06-04T02:34:18.517Z,19.14
2018-06-04T02:36:49.046Z,18.78
2018-06-04T02:39:19.592Z,18.63
2018-06-04T02:41:50.141Z,18.53
2018-06-04T02:44:20.608Z,18.60
2018-06-04T02:46:51.244Z,18.63
2018-06-04T02:49:21.716Z,18.64
2018-06-04T02:51:52.969Z,18.78
2018-06-04T02:54:24.178Z,18.90
2018-06-04T02:56:54.377Z,18.97
2018-06-04T02:59:24.782Z,19.11
2018-06-04T03:01:55.467Z,19.15
2018-06-04T03:04:25.965Z,19.18
2018-06-04T03:06:56.921Z,19.15
2018-06-04T03:09:28.335Z,19.16
2018-06-04T03:11:58.927Z,19.17
2018-06-04T03:14:29.729Z,19.36
2018-06-04T03:17:00.261Z,19.69
2018-06-04T03:19:30.810Z,19.55
2018-06-04T03:22:01.420Z,19.32
2018-06-04T03:24:31.900Z,19.00
2018-06-04T03:27:02.421Z,18.66
2018-06-04T03:29:33.937Z,18.47
2018-06-04T03:32:04.168Z,18.31
2018-06-04T03:34:34.756Z,18.25
2018-06-04T03:37:05.821Z,18.22
2018-06-04T03:39:36.400Z,18.26
2018-06-04T03:42:07.081Z,18.35
2018-06-04T03:44:37.975Z,18.41
2018-06-04T03:47:08.793Z,18.42
2018-06-04T03:49:39.609Z,18.45
2018-06-04T03:52:10.285Z,18.47
2018-06-04T03:54:40.763Z,18.47
2018-06-04T03:57:11.262Z,18.35
2018-06-04T03:59:42.227Z,18.22
2018-06-04T04:02:13.426Z,18.16
2018-06-04T04:04:44.177Z,18.20
2018-06-04T04:07:15.092Z,18.24
2018-06-04T04:09:45.611Z,18.26
2018-06-04T04:12:16.329Z,18.25
2018-06-04T04:14:46.862Z,18.22
2018-06-04T04:17:17.376Z,18.26
2018-06-04T04:19:47.640Z,18.36
2018-06-04T04:22:18.104Z,18.39
2018-06-04T04:24:48.648Z,18.49
2018-06-04T04:27:19.230Z,18.52
2018-06-04T04:29:49.714Z,18.51
2018-06-04T04:32:20.137Z,18.46
2018-06-04T04:34:50.610Z,18.48
2018-06-04T04:37:22.307Z,18.74
2018-06-04T04:39:52.949Z,18.85
2018-06-04T04:42:23.119Z,18.95
2018-06-04T04:44:53.709Z,18.97
2018-06-04T04:47:24.368Z,18.91
2018-06-04T04:49:55.009Z,18.90
2018-06-04T04:52:25.664Z,18.96
2018-06-04T04:54:55.888Z,19.14
2018-06-04T04:57:26.353Z,19.35
2018-06-04T04:59:57.010Z,19.53
2018-06-04T05:02:28.680Z,19.71
2018-06-04T05:04:59.238Z,19.86
2018-06-04T05:07:29.865Z,19.99
2018-06-04T05:10:00.346Z,20.08
2018-06-04T05:12:31.909Z,20.27
2018-06-04T05:15:02.448Z,20.30
2018-06-04T05:17:32.938Z,20.36
2018-06-04T05:20:03.483Z,20.54
2018-06-04T05:22:34.991Z,20.72
2018-06-04T05:25:05.810Z,20.94
2018-06-04T05:27:36.369Z,20.95
2018-06-04T05:30:06.998Z,21.01
2018-06-04T05:32:37.672Z,21.07
2018-06-04T05:35:08.391Z,21.36
2018-06-04T05:37:40.121Z,21.55
2018-06-04T05:40:11.391Z,21.62
2018-06-04T05:42:43.064Z,21.82
2018-06-04T05:45:13.690Z,21.84
2018-06-04T05:47:44.305Z,22.04
2018-06-04T05:50:14.786Z,22.26
2018-06-04T05:52:46.393Z,22.36
2018-06-04T05:55:16.886Z,22.49
2018-06-04T05:57:48.262Z,22.56
2018-06-04T06:00:18.920Z,22.47
2018-06-04T06:02:49.445Z,22.53
2018-06-04T06:05:19.954Z,22.59
2018-06-04T06:07:50.492Z,22.68
2018-06-04T06:10:21.030Z,22.72
2018-06-04T06:12:51.789Z,22.70
2018-06-04T06:15:23.692Z,22.86
2018-06-04T06:17:55.517Z,22.94
2018-06-04T06:20:26.909Z,23.06
2018-06-04T06:22:58.949Z,23.15
2018-06-04T06:25:29.458Z,23.14
2018-06-04T06:28:00.970Z,23.25
2018-06-04T06:30:32.162Z,23.34
2018-06-04T06:33:02.639Z,23.29
2018-06-04T06:35:32.856Z,23.41
2018-06-04T06:38:03.448Z,23.49
2018-06-04T06:40:33.917Z,23.21
2018-06-04T06:43:06.444Z,23.04
2018-06-04T06:45:37.022Z,23.12
2018-06-04T06:48:08.676Z,23.24
2018-06-04T06:50:39.247Z,23.19
2018-06-04T06:53:11.816Z,23.38
2018-06-04T06:55:42.452Z,23.27
2018-06-04T06:58:12.887Z,23.29
2018-06-04T07:00:43.502Z,23.39
2018-06-04T07:03:14.008Z,23.49
2018-06-04T07:05:44.561Z,23.60
2018-06-04T07:08:15.107Z,23.62
2018-06-04T07:10:45.723Z,23.75
2018-06-04T07:13:16.464Z,23.87
2018-06-04T07:15:47.516Z,23.92
2018-06-04T07:18:19.169Z,23.98
2018-06-04T07:20:49.867Z,23.97
2018-06-04T07:23:22.500Z,24.05
2018-06-04T07:25:53.057Z,23.95
2018-06-04T07:28:23.941Z,23.95
2018-06-04T07:30:54.999Z,24.00
2018-06-04T07:33:26.526Z,23.98
2018-06-04T07:36:09.253Z,24.02
2018-06-04T07:38:40.417Z,24.06
2018-06-04T07:41:12.211Z,24.18
2018-06-04T07:43:42.868Z,24.26
2018-06-04T07:46:13.447Z,24.40
2018-06-04T07:48:44.032Z,24.43
2018-06-04T07:51:14.576Z,24.46
2018-06-04T07:53:45.156Z,24.49
2018-06-04T07:56:16.041Z,24.59
2018-06-04T07:58:46.950Z,24.65
2018-06-04T08:01:18.542Z,24.64
2018-06-04T08:03:49.580Z,24.67
2018-06-04T08:06:20.152Z,24.74
2018-06-04T08:08:50.508Z,24.86
2018-06-04T08:11:20.768Z,24.86
2018-06-04T08:13:52.202Z,24.94
2018-06-04T08:16:22.799Z,25.03
2018-06-04T08:18:53.356Z,24.89
2018-06-04T08:21:23.828Z,24.96
2018-06-04T08:23:54.747Z,25.06
2018-06-04T08:26:25.272Z,25.06
2018-06-04T08:28:56.253Z,25.10
2018-06-04T08:31:26.909Z,25.19
2018-06-04T08:33:57.422Z,25.38
2018-06-04T08:36:28.819Z,25.46
2018-06-04T08:38:59.341Z,25.48
2018-06-04T08:41:31.237Z,25.62
2018-06-04T08:44:01.724Z,25.67
2018-06-04T08:46:31.911Z,25.80
2018-06-04T08:49:01.938Z,25.91
2018-06-04T08:51:32.427Z,26.02
2018-06-04T08:54:02.933Z,26.11
2018-06-04T08:56:34.449Z,26.22
2018-06-04T08:59:05.088Z,26.32
2018-06-04T09:01:36.932Z,26.39
2018-06-04T09:04:07.073Z,26.47
2018-06-04T09:06:37.781Z,26.41
2018-06-04T09:09:08.846Z,26.35
2018-06-04T09:11:39.329Z,26.41
2018-06-04T09:14:09.925Z,26.42
2018-06-04T09:16:40.544Z,26.40
2018-06-04T09:19:10.871Z,26.57
2018-06-04T09:21:41.313Z,26.65
2018-06-04T09:24:12.289Z,26.72
2018-06-04T09:26:43.108Z,26.76
2018-06-04T09:29:14.248Z,26.94
2018-06-04T09:31:44.802Z,27.07
2018-06-04T09:34:15.712Z,27.24
2018-06-04T09:36:46.177Z,27.27
2018-06-04T09:39:16.840Z,27.38
2018-06-04T09:41:47.495Z,27.48
2018-06-04T09:44:18.473Z,27.52
2018-06-04T09:46:50.968Z,27.50
2018-06-04T09:49:22.079Z,27.62
2018-06-04T09:51:53.032Z,27.69
2018-06-04T09:54:23.560Z,27.76
2018-06-04T09:56:54.212Z,27.78
2018-06-04T09:59:25.396Z,27.89
2018-06-04T10:01:55.921Z,28.02
2018-06-04T10:04:27.252Z,28.01
2018-06-04T10:06:58.277Z,28.05
2018-06-04T10:09:29.955Z,28.16
2018-06-04T10:12:00.489Z,28.21
2018-06-04T10:14:31.020Z,28.15
2018-06-04T10:17:03.598Z,28.14
2018-06-04T10:19:33.821Z,28.18
2018-06-04T10:22:04.355Z,28.24
2018-06-04T10:24:34.852Z,28.33
2018-06-04T10:27:06.460Z,28.52
2018-06-04T10:29:36.946Z,28.60
2018-06-04T10:32:07.884Z,28.66
2018-06-04T10:34:38.368Z,28.75
2018-06-04T10:37:10.458Z,28.78
2018-06-04T10:39:41.212Z,28.90
2018-06-04T10:42:11.766Z,28.81
2018-06-04T10:44:42.853Z,28.89
2018-06-04T10:47:13.769Z,28.98
2018-06-04T10:49:44.845Z,29.13
2018-06-04T10:52:15.617Z,29.13
2018-06-04T10:54:46.159Z,29.30
2018-06-04T10:57:17.003Z,29.38
2018-06-04T10:59:47.705Z,29.51
2018-06-04T11:02:18.419Z,29.55
2018-06-04T11:04:49.040Z,29.64
2018-06-04T11:07:19.537Z,29.71
2018-06-04T11:09:50.069Z,29.84
2018-06-04T11:12:21.708Z,30.01
2018-06-04T11:14:52.679Z,30.08
2018-06-04T11:17:24.305Z,30.18
2018-06-04T11:19:54.898Z,30.23
2018-06-04T11:22:25.623Z,30.27
2018-06-04T11:24:56.151Z,30.15
2018-06-04T11:27:27.010Z,30.18
2018-06-04T11:29:57.580Z,30.25
2018-06-04T11:32:28.083Z,30.39
2018-06-04T11:34:58.705Z,30.52
2018-06-04T11:37:29.935Z,30.64
2018-06-04T11:40:00.333Z,30.75
2018-06-04T11:42:32.034Z,30.81
2018-06-04T11:45:02.716Z,30.89
2018-06-04T11:47:33.346Z,30.78
2018-06-04T11:50:04.583Z,30.87
2018-06-04T11:52:35.172Z,30.98
2018-06-04T11:55:05.746Z,31.02
2018-06-04T11:57:36.428Z,31.06
2018-06-04T12:00:07.134Z,31.09
2018-06-04T12:02:37.789Z,31.15
2018-06-04T12:05:08.391Z,31.25
2018-06-04T12:07:38.965Z,31.26
2018-06-04T12:10:09.461Z,31.31
2018-06-04T12:12:41.109Z,31.32
2018-06-04T12:15:11.665Z,31.35
2018-06-04T12:17:43.531Z,31.28
2018-06-04T12:20:14.412Z,31.42
2018-06-04T12:22:46.091Z,31.58
2018-06-04T12:25:16.777Z,31.62
2018-06-04T12:27:47.750Z,31.66
2018-06-04T12:30:18.322Z,31.74
2018-06-04T12:32:50.005Z,31.91
2018-06-04T12:35:21.691Z,32.12
2018-06-04T12:37:52.425Z,32.16
2018-06-04T12:40:23.066Z,32.25
2018-06-04T12:42:53.594Z,32.36
2018-06-04T12:45:24.179Z,32.27
2018-06-04T12:47:54.799Z,32.25
2018-06-04T12:50:25.429Z,32.33
2018-06-04T12:52:55.934Z,32.41
2018-06-04T12:55:26.430Z,32.40
2018-06-04T12:57:56.982Z,32.53
2018-06-04T13:00:27.930Z,32.59
2018-06-04T13:02:58.797Z,32.69
2018-06-04T13:05:29.442Z,32.72
2018-06-04T13:07:59.960Z,32.83
2018-06-04T13:10:30.572Z,32.94
2018-06-04T13:13:01.093Z,32.81
2018-06-04T13:15:31.897Z,32.81
2018-06-04T13:18:02.611Z,32.90
2018-06-04T13:20:33.372Z,32.93
2018-06-04T13:23:03.990Z,32.92
2018-06-04T13:25:34.536Z,33.01
2018-06-04T13:28:06.367Z,33.13
2018-06-04T13:30:37.261Z,33.20
2018-06-04T13:33:07.885Z,33.17
2018-06-04T13:35:38.394Z,33.11
2018-06-04T13:38:10.010Z,33.00
2018-06-04T13:40:40.522Z,32.80
2018-06-04T13:43:11.042Z,33.01
2018-06-04T13:45:43.524Z,33.03
2018-06-04T13:48:15.050Z,32.83
2018-06-04T13:50:45.898Z,32.85
2018-06-04T13:53:16.417Z,33.04
2018-06-04T13:55:47.255Z,33.21
2018-06-04T13:58:17.873Z,33.16
2018-06-04T14:00:48.630Z,33.28
2018-06-04T14:03:19.405Z,33.38
2018-06-04T14:05:49.985Z,33.44
2018-06-04T14:08:21.428Z,33.40
2018-06-04T14:10:51.939Z,33.32
2018-06-04T14:13:22.476Z,33.42
2018-06-04T14:15:53.002Z,33.48
2018-06-04T14:18:23.569Z,33.47
2018-06-04T14:20:54.038Z,33.50
2018-06-04T14:23:25.675Z,33.39
2018-06-04T14:25:57.132Z,33.56
2018-06-04T14:28:27.652Z,33.73
2018-06-04T14:30:58.185Z,33.68
2018-06-04T14:33:28.758Z,33.54
2018-06-04T14:35:59.336Z,33.31
2018-06-04T14:38:29.849Z,33.06
2018-06-04T14:41:00.480Z,32.68
2018-06-04T14:43:31.085Z,32.66
2018-06-04T14:46:01.572Z,33.06
2018-06-04T14:48:32.166Z,33.36
2018-06-04T14:51:02.720Z,33.40
2018-06-04T14:53:33.293Z,33.25
2018-06-04T14:56:03.851Z,32.84
2018-06-04T14:58:34.550Z,33.00
2018-06-04T15:01:05.118Z,33.01
2018-06-04T15:03:35.609Z,33.16
2018-06-04T15:06:06.372Z,33.34
2018-06-04T15:08:37.053Z,33.48
2018-06-04T15:11:07.593Z,33.65
2018-06-04T15:13:38.957Z,33.74
2018-06-04T15:16:09.477Z,33.83
2018-06-04T15:18:40.789Z,33.94
2018-06-04T15:21:12.136Z,33.96
2018-06-04T15:23:42.827Z,33.63
2018-06-04T15:26:13.394Z,33.38
2018-06-04T15:28:43.645Z,33.15
2018-06-04T15:31:14.044Z,32.88
2018-06-04T15:33:44.581Z,32.71
2018-06-04T15:36:15.117Z,32.56
2018-06-04T15:38:45.617Z,32.39
2018-06-04T15:41:16.369Z,32.30
2018-06-04T15:43:47.940Z,32.20
2018-06-04T15:46:18.561Z,32.00
2018-06-04T15:48:49.186Z,31.72
2018-06-04T15:51:19.877Z,31.48
2018-06-04T15:53:50.417Z,31.29
2018-06-04T15:56:22.353Z,31.21
2018-06-04T15:58:54.141Z,31.20
2018-06-04T16:01:24.830Z,31.28
2018-06-04T16:03:55.525Z,31.49
2018-06-04T16:06:26.039Z,31.84
2018-06-04T16:08:56.595Z,32.24
2018-06-04T16:11:27.207Z,32.57
2018-06-04T16:13:57.705Z,32.87
2018-06-04T16:16:28.276Z,33.12
2018-06-04T16:18:58.893Z,32.95
2018-06-04T16:21:29.430Z,32.84
2018-06-04T16:23:59.937Z,32.83
2018-06-04T16:26:30.538Z,32.94
2018-06-04T16:29:01.264Z,32.79
2018-06-04T16:31:31.927Z,32.49
2018-06-04T16:34:02.738Z,32.33
2018-06-04T16:36:33.248Z,32.51
2018-06-04T16:39:04.254Z,32.68
2018-06-04T16:41:35.385Z,32.48
2018-06-04T16:44:06.363Z,32.54
2018-06-04T16:46:36.894Z,32.73
2018-06-04T16:49:07.434Z,32.85
2018-06-04T16:51:37.914Z,32.74
2018-06-04T16:54:08.385Z,32.85
2018-06-04T16:56:38.975Z,33.08
2018-06-04T16:59:09.481Z,33.03
2018-06-04T17:01:40.117Z,33.19
2018-06-04T17:04:10.626Z,33.38
2018-06-04T17:06:41.202Z,33.14
2018-06-04T17:09:11.780Z,32.84
2018-06-04T17:11:42.306Z,32.66
2018-06-04T17:14:13.621Z,33.30
2018-06-04T17:16:44.339Z,33.62
2018-06-04T17:19:14.910Z,35.29
2018-06-04T17:21:45.458Z,37.26
2018-06-04T17:24:16.097Z,38.12
2018-06-04T17:26:46.929Z,38.87
2018-06-04T17:29:18.399Z,39.25
2018-06-04T17:31:48.822Z,38.33
2018-06-04T17:34:19.421Z,37.26
2018-06-04T17:36:50.275Z,36.17
2018-06-04T17:39:20.879Z,35.76
2018-06-04T17:41:51.648Z,35.28
2018-06-04T17:44:22.348Z,34.74
2018-06-04T17:46:52.719Z,34.26
2018-06-04T17:49:23.237Z,33.86
2018-06-04T17:51:53.859Z,33.51
2018-06-04T17:54:24.346Z,32.81
2018-06-04T17:56:54.797Z,32.35
2018-06-04T17:59:25.350Z,32.05
2018-06-04T18:01:55.850Z,31.93
2018-06-04T18:04:26.621Z,31.71
2018-06-04T18:06:57.128Z,31.72
2018-06-04T18:09:27.629Z,31.58
2018-06-04T18:11:58.338Z,31.55
2018-06-04T18:14:28.956Z,31.51
2018-06-04T18:16:59.474Z,31.32
2018-06-04T18:19:30.022Z,31.07
2018-06-04T18:22:01.602Z,30.99
2018-06-04T18:24:32.107Z,30.91
2018-06-04T18:27:02.693Z,30.80
2018-06-04T18:29:35.398Z,30.65
2018-06-04T18:32:06.157Z,30.49
2018-06-04T18:34:36.733Z,30.20
2018-06-04T18:37:07.453Z,30.11
2018-06-04T18:39:38.500Z,30.01
2018-06-04T18:42:09.316Z,30.19
2018-06-04T18:44:39.925Z,30.28
2018-06-04T18:47:10.716Z,30.11
2018-06-04T18:49:41.220Z,29.94
2018-06-04T18:52:12.338Z,29.67
2018-06-04T18:54:42.804Z,29.42
2018-06-04T18:57:13.951Z,29.35
2018-06-04T18:59:44.763Z,29.25
2018-06-04T19:02:15.252Z,29.00
2018-06-04T19:04:45.754Z,28.98
2018-06-04T19:07:16.461Z,28.92
2018-06-04T19:09:47.046Z,28.79
2018-06-04T19:12:18.231Z,28.73
2018-06-04T19:14:50.007Z,28.65
2018-06-04T19:17:20.544Z,28.50
2018-06-04T19:19:51.065Z,28.42
2018-06-04T19:22:21.577Z,28.34
2018-06-04T19:24:52.182Z,28.25
2018-06-04T19:27:22.665Z,28.12
2018-06-04T19:29:53.247Z,28.06
2018-06-04T19:32:23.726Z,27.95
2018-06-04T19:34:54.226Z,27.87
2018-06-04T19:37:24.746Z,27.73
2018-06-04T19:39:55.246Z,27.55
2018-06-04T19:42:25.771Z,27.47
2018-06-04T19:44:56.370Z,27.42
2018-06-04T19:47:26.918Z,27.40
2018-06-04T19:49:57.482Z,27.44
2018-06-04T19:52:28.137Z,27.38
2018-06-04T19:54:58.688Z,27.20
2018-06-04T19:57:29.192Z,27.07
2018-06-04T19:59:59.961Z,27.07
2018-06-04T20:02:30.578Z,26.97
2018-06-04T20:05:01.137Z,26.86
2018-06-04T20:07:32.405Z,26.80
2018-06-04T20:10:02.971Z,26.78
2018-06-04T20:12:33.497Z,26.77
2018-06-04T20:15:04.332Z,26.77
2018-06-04T20:17:35.331Z,26.75
2018-06-04T20:20:08.575Z,26.62
2018-06-04T20:22:39.722Z,26.51
2018-06-04T20:25:10.287Z,26.43
2018-06-04T20:27:40.872Z,26.39
2018-06-04T20:30:11.702Z,26.33
2018-06-04T20:32:42.237Z,26.42
2018-06-04T20:35:12.774Z,26.40
2018-06-04T20:37:43.322Z,26.47
2018-06-04T20:40:13.976Z,26.46
2018-06-04T20:42:44.600Z,26.36
2018-06-04T20:45:15.172Z,26.45
2018-06-04T20:47:47.870Z,26.42
2018-06-04T20:50:18.560Z,26.32
2018-06-04T20:52:51.164Z,26.06
2018-06-04T20:55:21.648Z,25.86
2018-06-04T20:57:52.318Z,25.74
2018-06-04T21:00:23.363Z,25.65
2018-06-04T21:02:54.980Z,25.55
2018-06-04T21:05:25.416Z,25.55
2018-06-04T21:07:56.652Z,25.49
2018-06-04T21:10:27.401Z,25.30
2018-06-04T21:12:58.862Z,25.10
2018-06-04T21:15:29.514Z,24.85
2018-06-04T21:18:00.185Z,24.75
2018-06-04T21:20:30.643Z,24.59
2018-06-04T21:23:01.318Z,24.50
2018-06-04T21:25:31.954Z,24.35
2018-06-04T21:28:02.533Z,24.31
2018-06-04T21:30:33.348Z,24.10
2018-06-04T21:33:03.966Z,23.96
2018-06-04T21:35:34.480Z,23.87
2018-06-04T21:38:05.448Z,24.08
2018-06-04T21:40:35.964Z,23.99
2018-06-04T21:43:06.484Z,23.97
2018-06-04T21:45:37.024Z,23.83
2018-06-04T21:48:07.822Z,23.82
2018-06-04T21:50:38.413Z,23.62
2018-06-04T21:53:09.267Z,23.37
2018-06-04T21:55:39.789Z,23.40
2018-06-04T21:58:10.342Z,23.22
2018-06-04T22:00:41.305Z,23.06
2018-06-04T22:03:11.775Z,22.97
2018-06-04T22:05:42.274Z,22.89
2018-06-04T22:08:12.812Z,22.82
2018-06-04T22:10:43.300Z,22.73
2018-06-04T22:13:13.981Z,22.62
2018-06-04T22:15:44.971Z,22.63
2018-06-04T22:18:15.476Z,22.63
2018-06-04T22:20:45.999Z,22.56
2018-06-04T22:23:17.512Z,22.61
2018-06-04T22:25:47.985Z,22.52
2018-06-04T22:28:19.615Z,22.55
2018-06-04T22:30:50.463Z,22.45
2018-06-04T22:33:21.027Z,22.38
2018-06-04T22:35:51.523Z,22.28
2018-06-04T22:38:22.029Z,22.21
2018-06-04T22:40:52.509Z,22.11
2018-06-04T22:43:53.886Z,22.07
2018-06-04T22:46:24.466Z,21.99
2018-06-04T22:48:55.005Z,21.94
2018-06-04T22:51:25.767Z,21.97
2018-06-04T22:53:56.232Z,21.97
2018-06-04T22:56:27.452Z,21.97
2018-06-04T22:58:58.287Z,22.02
2018-06-04T23:01:28.897Z,22.00
2018-06-04T23:03:59.329Z,22.01
2018-06-04T23:06:30.818Z,22.01
2018-06-04T23:09:01.897Z,21.96
2018-06-04T23:11:33.353Z,21.96
2018-06-04T23:14:04.325Z,21.98
2018-06-04T23:16:35.849Z,21.88
2018-06-04T23:19:06.559Z,21.88
2018-06-04T23:21:37.961Z,21.87
2018-06-04T23:24:08.650Z,21.92
2018-06-04T23:26:39.114Z,21.91
2018-06-04T23:29:09.578Z,21.98
2018-06-04T23:31:41.443Z,22.00
2018-06-04T23:34:12.132Z,21.88
2018-06-04T23:36:42.610Z,21.73
2018-06-04T23:39:13.954Z,21.52
2018-06-04T23:41:44.758Z,21.35
2018-06-04T23:44:15.435Z,21.35
2018-06-04T23:46:45.744Z,21.30
2018-06-04T23:49:16.445Z,21.19
2018-06-04T23:51:48.147Z,21.15
2018-06-04T23:54:19.028Z,21.07
2018-06-04T23:56:51.324Z,21.05
2018-06-04T23:59:21.870Z,20.93
